createdAt,value
2018-07-31T00:02:00.516Z,11.12
2018-07-31T00:07:55.536Z,11.25
2018-07-31T00:13:50.536Z,10.81
2018-07-31T00:19:45.522Z,10.62
2018-07-31T00:25:40.533Z,10.77
2018-07-31T00:31:35.523Z,10.01
2018-07-31T00:37:30.535Z,10.19
2018-07-31T00:43:25.538Z,9.57
2018-07-31T00:49:20.612Z,9.81
2018-07-31T00:55:15.606Z,11.19
2018-07-31T01:01:10.613Z,11.03
2018-07-31T01:07:05.558Z,11.19
2018-07-31T01:13:00.566Z,10.73
2018-07-31T01:18:55.612Z,11.22
2018-07-31T01:24:50.589Z,11.24
2018-07-31T01:30:45.579Z,11.08
2018-07-31T01:36:40.608Z,11.41
2018-07-31T01:42:35.583Z,10.14
2018-07-31T01:48:30.597Z,11.1
2018-07-31T01:54:25.585Z,9.52
2018-07-31T02:00:20.609Z,8.87
2018-07-31T02:06:15.671Z,8.51
2018-07-31T02:12:10.634Z,8.96
2018-07-31T02:18:05.628Z,8.95
2018-07-31T02:24:00.601Z,9.69
2018-07-31T02:29:55.668Z,10.09
2018-07-31T02:35:50.626Z,9.83
2018-07-31T02:41:45.616Z,10.78
2018-07-31T02:47:40.625Z,10.73
2018-07-31T02:53:35.618Z,10.52
2018-07-31T02:59:30.676Z,10.73
2018-07-31T03:05:25.644Z,9.85
2018-07-31T03:11:20.667Z,10.3
2018-07-31T03:17:15.668Z,10.31
2018-07-31T03:23:10.698Z,10.06
2018-07-31T03:29:05.617Z,10.02
2018-07-31T03:35:00.666Z,10.94
2018-07-31T03:40:55.657Z,11.01
2018-07-31T03:46:50.677Z,10.95
2018-07-31T03:52:45.660Z,10.22
2018-07-31T03:58:40.659Z,9.3
2018-07-31T04:04:35.731Z,9.37
2018-07-31T04:10:30.676Z,9.33
2018-07-31T04:16:25.704Z,11.7
2018-07-31T04:22:20.649Z,10.31
2018-07-31T04:28:15.704Z,11
2018-07-31T04:34:10.773Z,10.45
2018-07-31T04:40:05.699Z,10.68
2018-07-31T04:46:00.684Z,10.32
2018-07-31T04:51:55.693Z,10.38
2018-07-31T04:57:50.680Z,9.66
2018-07-31T05:03:45.719Z,10.28
2018-07-31T05:09:40.706Z,10.4
2018-07-31T05:15:35.697Z,11.14
2018-07-31T05:21:30.696Z,10.34
2018-07-31T05:27:25.719Z,10.6
2018-07-31T05:33:20.722Z,10.23
2018-07-31T05:39:15.802Z,11.43
2018-07-31T05:45:10.771Z,10.85
2018-07-31T05:51:05.780Z,11.38
2018-07-31T05:57:00.721Z,10.79
2018-07-31T06:02:55.760Z,11.27
2018-07-31T06:08:50.751Z,11.05
2018-07-31T06:14:45.744Z,11.33
2018-07-31T06:20:40.743Z,12
2018-07-31T06:26:35.792Z,12.43
2018-07-31T06:32:30.824Z,12.23
2018-07-31T06:38:25.793Z,12.18
2018-07-31T06:44:20.801Z,11.68
2018-07-31T06:50:15.783Z,12.11
2018-07-31T06:56:10.788Z,12.66
2018-07-31T07:02:05.785Z,12.36
2018-07-31T07:08:00.780Z,12.67
2018-07-31T07:13:55.823Z,12.74
2018-07-31T07:19:50.794Z,11.3
2018-07-31T07:25:45.845Z,11.45
2018-07-31T07:31:40.880Z,10.23
2018-07-31T07:37:35.801Z,9.9
2018-07-31T07:43:30.821Z,10.15
2018-07-31T07:49:25.868Z,9.16
2018-07-31T07:55:20.842Z,9.21
2018-07-31T08:01:15.828Z,9.2
2018-07-31T08:07:10.856Z,9.71
2018-07-31T08:13:05.833Z,8.76
2018-07-31T08:19:00.899Z,8.9
2018-07-31T08:24:55.901Z,8.67
2018-07-31T08:30:50.872Z,8.26
2018-07-31T08:36:45.935Z,8.91
2018-07-31T08:42:40.852Z,8.47
2018-07-31T08:48:35.889Z,8.92
2018-07-31T08:54:30.878Z,7.74
2018-07-31T09:00:25.937Z,8.3
2018-07-31T09:06:20.904Z,8.26
2018-07-31T09:12:15.886Z,6.88
2018-07-31T09:18:10.904Z,7.05
2018-07-31T09:24:05.902Z,6.43
2018-07-31T09:30:00.935Z,6.15
2018-07-31T09:35:55.921Z,6.61
2018-07-31T09:41:50.933Z,6.33
2018-07-31T09:47:45.958Z,6.94
2018-07-31T09:53:40.932Z,6.75
2018-07-31T09:59:35.918Z,7.46
2018-07-31T10:05:30.906Z,7.46
2018-07-31T10:11:25.931Z,6.32
2018-07-31T10:17:20.971Z,7.54
2018-07-31T10:23:15.955Z,7.09
2018-07-31T10:29:10.993Z,7.16
2018-07-31T10:35:05.945Z,7.34
2018-07-31T10:41:00.977Z,6.92
2018-07-31T10:46:55.965Z,6.12
2018-07-31T10:52:50.965Z,6.32
2018-07-31T10:58:46.029Z,5.8
2018-07-31T11:04:40.976Z,6.4
2018-07-31T11:10:36.017Z,6.39
2018-07-31T11:16:31.003Z,5.99
2018-07-31T11:22:26.041Z,6.25
2018-07-31T11:28:21.030Z,5.7
2018-07-31T11:34:15.987Z,5.87
2018-07-31T11:40:11.063Z,5.99
2018-07-31T11:46:06.061Z,4.54
2018-07-31T11:52:01.016Z,5.63
2018-07-31T11:57:56.166Z,5.5
2018-07-31T12:03:51.078Z,5.96
2018-07-31T12:09:46.036Z,5.29
2018-07-31T12:15:41.040Z,5.08
2018-07-31T12:21:36.028Z,5.35
2018-07-31T12:27:31.027Z,5.19
2018-07-31T12:33:26.086Z,4.91
2018-07-31T12:39:21.113Z,5.09
2018-07-31T12:45:16.129Z,5.17
2018-07-31T12:51:11.038Z,5.69
2018-07-31T12:57:06.090Z,5.35
2018-07-31T13:03:01.119Z,5.33
2018-07-31T13:08:56.070Z,4.85
2018-07-31T13:14:51.085Z,5.2
2018-07-31T13:20:46.060Z,5.02
2018-07-31T13:26:41.149Z,4.56
2018-07-31T13:32:36.074Z,5.24
2018-07-31T13:38:31.116Z,5.73
2018-07-31T13:44:26.082Z,5.77
2018-07-31T13:50:21.107Z,5.49
2018-07-31T13:56:16.093Z,5.31
2018-07-31T14:02:11.175Z,5.2
2018-07-31T14:08:06.123Z,6.02
2018-07-31T14:14:01.162Z,5.6
2018-07-31T14:19:56.166Z,5.93
2018-07-31T14:25:51.135Z,6.14
2018-07-31T14:31:46.126Z,6.25
2018-07-31T14:37:41.173Z,6.22
2018-07-31T14:43:36.247Z,5.82
2018-07-31T14:49:31.174Z,5.7
2018-07-31T14:55:28.646Z,5.83
2018-07-31T15:01:24.982Z,6.42
2018-07-31T15:07:16.170Z,5.31
2018-07-31T15:13:11.175Z,5.13
2018-07-31T15:19:06.183Z,5.33
2018-07-31T15:25:01.200Z,6.51
2018-07-31T15:31:00.933Z,6.75
2018-07-31T15:36:59.331Z,6.89
2018-07-31T15:42:54.399Z,6.47
2018-07-31T15:48:49.348Z,6.91
2018-07-31T15:54:44.337Z,6.77
2018-07-31T16:00:47.367Z,6.67
2018-07-31T16:06:34.455Z,6.89
2018-07-31T16:12:29.365Z,6.79
2018-07-31T16:18:24.172Z,6.71
2018-07-31T16:24:16.608Z,6.41
2018-07-31T16:30:16.988Z,6.85
2018-07-31T16:36:09.370Z,6.69
2018-07-31T16:42:07.127Z,6.57
2018-07-31T16:47:59.373Z,6.91
2018-07-31T16:53:54.402Z,6.88
2018-07-31T16:59:49.449Z,6.7
2018-07-31T17:05:44.372Z,6.52
2018-07-31T17:11:39.364Z,6.3
2018-07-31T17:17:34.462Z,6.65
2018-07-31T17:23:29.385Z,6.68
2018-07-31T17:29:24.434Z,7.38
2018-07-31T17:35:19.448Z,6.89
2018-07-31T17:41:14.602Z,6.92
2018-07-31T17:47:09.517Z,6.49
2018-07-31T17:53:04.461Z,7.11
2018-07-31T17:58:59.464Z,6.77
2018-07-31T18:04:54.456Z,6.85
2018-07-31T18:10:49.523Z,7.02
2018-07-31T18:16:44.530Z,6.92
2018-07-31T18:22:39.528Z,7.31
2018-07-31T18:28:26.336Z,7.57
2018-07-31T18:34:21.345Z,7.73
2018-07-31T18:40:16.349Z,7.09
2018-07-31T18:46:11.339Z,7.97
2018-07-31T18:52:06.352Z,7.49
2018-07-31T18:58:01.412Z,7.6
2018-07-31T19:03:56.413Z,7.78
2018-07-31T19:09:51.402Z,7.08
2018-07-31T19:15:46.379Z,7.72
2018-07-31T19:21:41.356Z,7.01
2018-07-31T19:27:36.397Z,7.63
2018-07-31T19:33:31.415Z,7.95
2018-07-31T19:39:26.400Z,8.6
2018-07-31T19:45:21.397Z,7.5
2018-07-31T19:51:16.412Z,8.24
2018-07-31T19:57:11.406Z,11.82
2018-07-31T20:03:06.407Z,7.83
2018-07-31T20:09:01.442Z,7.4
2018-07-31T20:14:56.406Z,7.55
2018-07-31T20:20:51.411Z,7.88
2018-07-31T20:26:46.410Z,7.19
2018-07-31T20:32:41.417Z,7.71
2018-07-31T20:38:36.419Z,7.97
2018-07-31T20:44:31.445Z,7.74
2018-07-31T20:50:26.522Z,8.18
2018-07-31T20:56:21.483Z,7.28
2018-07-31T21:02:16.485Z,8.24
2018-07-31T21:08:11.474Z,8.31
2018-07-31T21:14:06.456Z,8.21
2018-07-31T21:20:01.532Z,8.37
2018-07-31T21:25:56.462Z,8.23
2018-07-31T21:31:51.453Z,8.65
2018-07-31T21:37:46.466Z,8.97
2018-07-31T21:43:41.485Z,9
2018-07-31T21:49:36.481Z,8.85
2018-07-31T21:55:31.462Z,8.5
2018-07-31T22:01:26.494Z,9.16
2018-07-31T22:07:21.491Z,8.9
2018-07-31T22:13:16.486Z,8.39
2018-07-31T22:19:11.481Z,8.3
2018-07-31T22:25:06.581Z,8.44
2018-07-31T22:31:01.542Z,8.34
2018-07-31T22:36:56.482Z,9.37
2018-07-31T22:42:51.513Z,8.75
2018-07-31T22:48:46.558Z,8.66
2018-07-31T22:54:41.513Z,9.09
2018-07-31T23:00:36.524Z,8.78
2018-07-31T23:06:31.600Z,8.87
2018-07-31T23:12:26.557Z,8.57
2018-07-31T23:18:21.613Z,8.78
2018-07-31T23:24:16.589Z,8.97
2018-07-31T23:30:11.540Z,8.72
2018-07-31T23:36:06.543Z,8.72
2018-07-31T23:42:01.574Z,9.58
2018-07-31T23:47:56.575Z,9.3
2018-07-31T23:53:51.570Z,9.55
2018-07-31T23:59:46.591Z,9.42
